Time;durP1;ratioP1;P1;durP2;ratioP2;P2;SDS_P1;SDS_P2;PMS_P1;PMS_P2;Temp;Humidity;BMP_temperature;BMP_pressure;BME280_temperature;BME280_humidity;BME280_pressure;Samples;Min_cycle;Max_cycle;Signal;HPM_P1;HPM_P2
2024/01/03 00:01:29;;;;;;;15.95;2.85;;;;;;;;;;5043158;28;20505;-70
2024/01/03 00:03:57;;;;;;;11.45;2.85;;;;;;;;;;5028853;28;20050;-70
2024/01/03 00:06:25;;;;;;;16.75;3.28;;;;;;;;;;5030799;28;20080;-69
2024/01/03 00:08:52;;;;;;;10.07;1.80;;;;;;;;;;5040945;28;20057;-70
2024/01/03 00:11:19;;;;;;;11.13;2.28;;;;;;;;;;5030215;28;20143;-71
2024/01/03 00:14:01;;;;;;;11.20;2.10;;;;;;;;;;5036452;28;20053;-71
2024/01/03 00:16:28;;;;;;;10.55;1.92;;;;;;;;;;5038150;28;20586;-70
2024/01/03 00:18:57;;;;;;;12.05;1.73;;;;;;;;;;5035877;28;20092;-70
2024/01/03 00:21:28;;;;;;;10.88;1.90;;;;;;;;;;5023140;28;20522;-71
2024/01/03 00:23:55;;;;;;;6.60;1.48;;;;;;;;;;5023868;28;20514;-71
2024/01/03 00:26:23;;;;;;;10.82;1.80;;;;;;;;;;5041664;28;20049;-72
2024/01/03 00:28:50;;;;;;;9.55;1.58;;;;;;;;;;5032737;28;20556;-71
2024/01/03 00:31:43;;;;;;;9.13;1.48;;;;;;;;;;5032629;28;20049;-71
2024/01/03 00:34:22;;;;;;;8.82;2.08;;;;;;;;;;5023130;28;20058;-70
2024/01/03 00:36:50;;;;;;;7.78;1.65;;;;;;;;;;5033459;28;20244;-71
2024/01/03 00:39:20;;;;;;;11.50;2.13;;;;;;;;;;5023601;28;20052;-71
2024/01/03 00:41:46;;;;;;;13.38;2.53;;;;;;;;;;5026274;28;20621;-71
2024/01/03 00:44:12;;;;;;;12.68;2.03;;;;;;;;;;5029247;28;20143;-71
2024/01/03 00:46:39;;;;;;;14.50;2.35;;;;;;;;;;5042215;28;20549;-71
2024/01/03 00:49:05;;;;;;;8.73;2.25;;;;;;;;;;5024007;28;20570;-70
2024/01/03 00:51:32;;;;;;;10.88;1.98;;;;;;;;;;5028263;28;20231;-71
2024/01/03 00:53:58;;;;;;;14.02;2.72;;;;;;;;;;5030066;28;20057;-70
2024/01/03 00:56:25;;;;;;;15.93;3.22;;;;;;;;;;5037650;28;20082;-71
2024/01/03 00:58:51;;;;;;;10.73;1.85;;;;;;;;;;5043191;28;20062;-70
2024/01/03 01:01:18;;;;;;;18.10;2.65;;;;;;;;;;5043525;28;20500;-71
2024/01/03 01:03:44;;;;;;;8.25;1.85;;;;;;;;;;5041536;28;20132;-71
2024/01/03 01:06:11;;;;;;;6.10;1.45;;;;;;;;;;5038934;28;20737;-70
2024/01/03 01:08:37;;;;;;;11.73;1.85;;;;;;;;;;5027985;28;20080;-72
2024/01/03 01:11:04;;;;;;;16.23;2.28;;;;;;;;;;5025064;28;20500;-71
2024/01/03 01:13:30;;;;;;;12.75;2.35;;;;;;;;;;5022496;28;20054;-71
2024/01/03 01:15:57;;;;;;;12.07;2.38;;;;;;;;;;5026318;28;20061;-71
2024/01/03 01:18:23;;;;;;;10.90;2.17;;;;;;;;;;5023141;28;20049;-71
2024/01/03 01:20:50;;;;;;;12.43;2.30;;;;;;;;;;5042172;28;20050;-70
2024/01/03 01:23:16;;;;;;;18.40;2.67;;;;;;;;;;5038919;28;20049;-71
2024/01/03 01:25:43;;;;;;;13.40;3.33;;;;;;;;;;5044619;28;20049;-71
2024/01/03 01:28:09;;;;;;;18.40;3.20;;;;;;;;;;5044250;28;20060;-70
2024/01/03 01:30:36;;;;;;;18.38;4.82;;;;;;;;;;5027120;28;20123;-70
2024/01/03 01:33:02;;;;;;;16.58;3.03;;;;;;;;;;5025579;28;20057;-70
2024/01/03 01:35:29;;;;;;;15.98;2.70;;;;;;;;;;5028817;28;20054;-70
2024/01/03 01:37:55;;;;;;;9.85;2.20;;;;;;;;;;5025844;28;20065;-70
2024/01/03 01:40:22;;;;;;;17.88;3.72;;;;;;;;;;5044979;28;20053;-70
2024/01/03 01:42:48;;;;;;;19.85;3.45;;;;;;;;;;5030219;28;20133;-72
2024/01/03 01:45:15;;;;;;;19.75;3.28;;;;;;;;;;5045854;28;20373;-72
2024/01/03 01:47:42;;;;;;;27.20;4.18;;;;;;;;;;5044643;28;20057;-70
2024/01/03 01:50:10;;;;;;;21.25;3.72;;;;;;;;;;5036455;28;20078;-72
2024/01/03 01:52:38;;;;;;;17.88;4.43;;;;;;;;;;5042541;28;20056;-73
2024/01/03 01:55:04;;;;;;;16.92;3.13;;;;;;;;;;5032026;28;20177;-71
2024/01/03 01:57:31;;;;;;;16.92;3.25;;;;;;;;;;5031745;28;20050;-71
2024/01/03 01:59:58;;;;;;;16.38;3.05;;;;;;;;;;5041510;28;20053;-71
2024/01/03 02:02:25;;;;;;;24.55;3.75;;;;;;;;;;5029671;28;20108;-72
2024/01/03 02:04:52;;;;;;;16.00;2.88;;;;;;;;;;5045143;28;20049;-71
2024/01/03 02:07:19;;;;;;;21.23;3.28;;;;;;;;;;5044959;28;20064;-71
2024/01/03 02:09:47;;;;;;;19.20;2.85;;;;;;;;;;5044425;28;20472;-72
2024/01/03 02:12:13;;;;;;;18.88;3.05;;;;;;;;;;5046005;28;20054;-72
2024/01/03 02:14:40;;;;;;;11.82;3.67;;;;;;;;;;5043686;28;20415;-73
2024/01/03 02:17:07;;;;;;;26.15;4.05;;;;;;;;;;5030026;28;20054;-72
2024/01/03 02:19:33;;;;;;;20.75;3.22;;;;;;;;;;5029838;28;20057;-71
2024/01/03 02:22:00;;;;;;;22.60;4.22;;;;;;;;;;5046285;28;20594;-71
2024/01/03 02:24:26;;;;;;;16.05;2.70;;;;;;;;;;5025310;28;20057;-72
2024/01/03 02:26:52;;;;;;;20.02;3.55;;;;;;;;;;5025337;28;20112;-72
2024/01/03 02:29:19;;;;;;;22.52;3.70;;;;;;;;;;5043193;28;20509;-71
2024/01/03 02:31:45;;;;;;;16.52;3.50;;;;;;;;;;5043348;28;20061;-72
2024/01/03 02:34:12;;;;;;;19.33;2.53;;;;;;;;;;5025219;28;20137;-71
2024/01/03 02:36:38;;;;;;;23.42;3.17;;;;;;;;;;5023078;28;20464;-69
2024/01/03 02:39:05;;;;;;;18.20;2.72;;;;;;;;;;5024263;28;20460;-71
2024/01/03 02:41:31;;;;;;;13.85;3.40;;;;;;;;;;5033385;28;20058;-71
2024/01/03 02:43:57;;;;;;;19.17;4.00;;;;;;;;;;5040399;28;20065;-70
2024/01/03 02:46:24;;;;;;;17.25;2.80;;;;;;;;;;5043931;28;20137;-70
2024/01/03 02:48:50;;;;;;;21.58;3.83;;;;;;;;;;5033838;28;20104;-71
2024/01/03 02:51:21;;;;;;;16.98;2.80;;;;;;;;;;5038428;28;20133;-70
2024/01/03 02:53:48;;;;;;;14.73;2.97;;;;;;;;;;5038864;28;20084;-70
2024/01/03 02:56:14;;;;;;;16.92;2.70;;;;;;;;;;5044178;28;20061;-69
2024/01/03 02:58:41;;;;;;;18.77;2.63;;;;;;;;;;5023818;28;20057;-69
2024/01/03 03:01:07;;;;;;;17.08;3.33;;;;;;;;;;5024683;28;20108;-71
2024/01/03 03:03:34;;;;;;;19.15;2.97;;;;;;;;;;5037426;28;20084;-69
2024/01/03 03:06:02;;;;;;;16.10;3.38;;;;;;;;;;5040695;28;20065;-70
2024/01/03 03:08:28;;;;;;;14.60;3.08;;;;;;;;;;5024568;28;20453;-70
2024/01/03 03:10:55;;;;;;;21.85;3.53;;;;;;;;;;5042862;28;20053;-70
2024/01/03 03:13:23;;;;;;;13.20;3.03;;;;;;;;;;5043821;28;20156;-70
2024/01/03 03:15:49;;;;;;;20.70;3.75;;;;;;;;;;5045189;28;20132;-70
2024/01/03 03:18:16;;;;;;;18.20;2.63;;;;;;;;;;5042373;28;20057;-70
2024/01/03 03:20:42;;;;;;;21.42;5.18;;;;;;;;;;5031613;28;20061;-70
2024/01/03 03:23:09;;;;;;;16.85;2.70;;;;;;;;;;5029967;28;20057;-71
2024/01/03 03:25:35;;;;;;;18.63;3.63;;;;;;;;;;5044638;28;20080;-71
2024/01/03 03:28:07;;;;;;;22.05;3.42;;;;;;;;;;5037647;28;20049;-70
2024/01/03 03:30:35;;;;;;;16.38;2.83;;;;;;;;;;5043625;28;20050;-70
2024/01/03 03:33:01;;;;;;;21.50;3.40;;;;;;;;;;5043429;28;20518;-70
2024/01/03 03:35:28;;;;;;;15.88;2.33;;;;;;;;;;5043113;28;20256;-71
2024/01/03 03:37:56;;;;;;;19.20;3.72;;;;;;;;;;5031620;28;20062;-70
2024/01/03 03:40:23;;;;;;;17.00;2.55;;;;;;;;;;5040593;28;20053;-71
2024/01/03 03:42:50;;;;;;;15.70;2.60;;;;;;;;;;5042125;28;20443;-70
2024/01/03 03:45:16;;;;;;;18.90;3.25;;;;;;;;;;5039305;28;20069;-70
2024/01/03 03:47:43;;;;;;;16.08;2.88;;;;;;;;;;5033702;28;20619;-71
2024/01/03 03:50:09;;;;;;;23.02;3.80;;;;;;;;;;5039786;28;20049;-70
2024/01/03 03:52:37;;;;;;;18.05;3.22;;;;;;;;;;5031607;28;20050;-70
2024/01/03 03:55:04;;;;;;;18.52;3.47;;;;;;;;;;5029302;28;20061;-70
2024/01/03 03:57:31;;;;;;;18.90;3.33;;;;;;;;;;5023236;28;20058;-70
2024/01/03 03:59:57;;;;;;;15.57;2.92;;;;;;;;;;5025124;28;20061;-69
2024/01/03 04:02:24;;;;;;;18.60;3.10;;;;;;;;;;5038643;28;20053;-69
2024/01/03 04:04:51;;;;;;;25.00;4.32;;;;;;;;;;5043029;28;20061;-70
2024/01/03 04:07:18;;;;;;;20.13;3.10;;;;;;;;;;5038822;28;20056;-70
2024/01/03 04:09:44;;;;;;;25.00;4.15;;;;;;;;;;5023269;28;20054;-70
2024/01/03 04:12:11;;;;;;;15.43;3.63;;;;;;;;;;5023287;28;20054;-69
2024/01/03 04:14:37;;;;;;;21.02;3.38;;;;;;;;;;5033235;28;20131;-70
2024/01/03 04:17:04;;;;;;;28.05;3.95;;;;;;;;;;5024814;28;20160;-70
2024/01/03 04:19:31;;;;;;;22.90;5.10;;;;;;;;;;5024065;28;20065;-69
2024/01/03 04:21:58;;;;;;;26.00;3.83;;;;;;;;;;5023611;28;20684;-69
2024/01/03 04:24:24;;;;;;;18.80;4.68;;;;;;;;;;5023516;28;20060;-71
2024/01/03 04:26:54;;;;;;;24.67;4.47;;;;;;;;;;5022540;28;20065;-70
2024/01/03 04:29:20;;;;;;;26.63;4.10;;;;;;;;;;5038515;28;20104;-71
2024/01/03 04:31:47;;;;;;;29.08;5.45;;;;;;;;;;5041190;28;20112;-72
2024/01/03 04:34:14;;;;;;;25.10;4.18;;;;;;;;;;5028341;28;20054;-72
2024/01/03 04:36:40;;;;;;;36.13;4.93;;;;;;;;;;5023054;28;20046;-71
2024/01/03 04:39:07;;;;;;;28.20;4.13;;;;;;;;;;5023460;28;20477;-71
2024/01/03 04:41:33;;;;;;;20.80;3.58;;;;;;;;;;5027703;28;20106;-71
2024/01/03 04:44:00;;;;;;;21.73;5.25;;;;;;;;;;5042762;28;20663;-71
2024/01/03 04:46:26;;;;;;;28.48;4.22;;;;;;;;;;5025354;28;20133;-71
2024/01/03 04:48:53;;;;;;;26.42;4.07;;;;;;;;;;5022783;28;20513;-71
2024/01/03 04:51:19;;;;;;;28.73;4.88;;;;;;;;;;5042607;28;20576;-69
2024/01/03 04:53:46;;;;;;;29.75;4.18;;;;;;;;;;5024044;28;20156;-70
2024/01/03 04:56:13;;;;;;;22.98;5.03;;;;;;;;;;5035923;28;20209;-70
2024/01/03 04:58:39;;;;;;;41.67;5.82;;;;;;;;;;5042692;28;20108;-70
2024/01/03 05:01:05;;;;;;;27.30;5.05;;;;;;;;;;5047950;28;20099;-71
2024/01/03 05:03:32;;;;;;;29.55;4.57;;;;;;;;;;5030013;28;20128;-69
2024/01/03 05:05:58;;;;;;;20.23;3.83;;;;;;;;;;5043958;28;20103;-70
2024/01/03 05:08:25;;;;;;;30.15;4.03;;;;;;;;;;5039704;28;20127;-70
2024/01/03 05:10:51;;;;;;;39.45;6.03;;;;;;;;;;5043266;28;20495;-70
2024/01/03 05:13:18;;;;;;;24.63;4.43;;;;;;;;;;5047835;28;20076;-70
2024/01/03 05:15:44;;;;;;;30.02;6.15;;;;;;;;;;5048758;28;20145;-72
2024/01/03 05:18:11;;;;;;;29.25;4.72;;;;;;;;;;5037704;28;20496;-72
2024/01/03 05:20:38;;;;;;;22.05;3.78;;;;;;;;;;5044320;28;20056;-71
2024/01/03 05:23:04;;;;;;;19.45;3.30;;;;;;;;;;5048943;28;20143;-71
2024/01/03 05:25:31;;;;;;;34.50;4.57;;;;;;;;;;5030155;28;20065;-71
2024/01/03 05:27:57;;;;;;;29.27;3.88;;;;;;;;;;5028937;28;20052;-70
2024/01/03 05:30:24;;;;;;;37.70;5.45;;;;;;;;;;5029608;28;20108;-70
2024/01/03 05:32:50;;;;;;;27.75;5.85;;;;;;;;;;5029841;28;20144;-70
2024/01/03 05:35:17;;;;;;;33.40;4.88;;;;;;;;;;5050144;28;20057;-71
2024/01/03 05:37:43;;;;;;;27.23;4.90;;;;;;;;;;5038504;28;20148;-70
2024/01/03 05:40:10;;;;;;;28.63;4.30;;;;;;;;;;5040738;28;20516;-69
2024/01/03 05:42:37;;;;;;;24.98;3.35;;;;;;;;;;5030473;28;20064;-70
2024/01/03 05:45:03;;;;;;;30.55;4.88;;;;;;;;;;5048927;28;20049;-69
2024/01/03 05:47:30;;;;;;;31.63;4.63;;;;;;;;;;5039017;28;20057;-71
2024/01/03 05:49:57;;;;;;;32.28;5.72;;;;;;;;;;5041313;28;20506;-69
2024/01/03 05:52:23;;;;;;;24.25;4.00;;;;;;;;;;5032016;28;20053;-70
2024/01/03 05:54:49;;;;;;;40.85;5.78;;;;;;;;;;5048842;28;20056;-71
2024/01/03 05:57:16;;;;;;;24.80;4.40;;;;;;;;;;5048283;28;20096;-72
2024/01/03 05:59:42;;;;;;;23.58;4.38;;;;;;;;;;5037651;28;20344;-73
2024/01/03 06:02:09;;;;;;;26.88;4.05;;;;;;;;;;5048632;28;20120;-72
2024/01/03 06:04:36;;;;;;;23.80;4.60;;;;;;;;;;5047977;28;20594;-72
2024/01/03 06:07:02;;;;;;;26.95;3.50;;;;;;;;;;5047836;28;20077;-73
2024/01/03 06:09:29;;;;;;;19.25;3.53;;;;;;;;;;5048326;28;20061;-73
2024/01/03 06:11:55;;;;;;;29.45;4.40;;;;;;;;;;5045210;28;20058;-72
2024/01/03 06:14:22;;;;;;;25.58;3.78;;;;;;;;;;5045289;28;20132;-71
2024/01/03 06:16:49;;;;;;;27.17;4.90;;;;;;;;;;5045127;28;20522;-71
2024/01/03 06:19:16;;;;;;;26.35;4.32;;;;;;;;;;5033055;28;20053;-72
2024/01/03 06:21:42;;;;;;;26.58;3.67;;;;;;;;;;5040066;28;20169;-71
2024/01/03 06:24:09;;;;;;;20.58;3.75;;;;;;;;;;5041464;28;20132;-70
2024/01/03 06:26:36;;;;;;;28.83;4.20;;;;;;;;;;5025742;28;20054;-71
2024/01/03 06:29:02;;;;;;;17.85;3.20;;;;;;;;;;5024584;28;20065;-70
2024/01/03 06:31:28;;;;;;;17.48;3.47;;;;;;;;;;5035994;28;20057;-69
2024/01/03 06:33:55;;;;;;;16.95;2.90;;;;;;;;;;5038376;28;20141;-71
2024/01/03 06:36:22;;;;;;;11.20;3.53;;;;;;;;;;5024031;28;20093;-70
2024/01/03 06:38:50;;;;;;;9.93;2.20;;;;;;;;;;5034757;28;20103;-71
2024/01/03 06:41:18;;;;;;;15.48;4.63;;;;;;;;;;5044653;28;20065;-70
2024/01/03 06:43:44;;;;;;;15.45;2.40;;;;;;;;;;5035612;28;20116;-71
2024/01/03 06:46:11;;;;;;;10.48;2.33;;;;;;;;;;5030540;28;20112;-72
2024/01/03 06:48:37;;;;;;;12.15;2.28;;;;;;;;;;5037075;28;20160;-71
2024/01/03 06:51:04;;;;;;;14.90;2.38;;;;;;;;;;5043248;28;20053;-70
2024/01/03 06:53:31;;;;;;;17.58;2.88;;;;;;;;;;5044143;28;20060;-70
2024/01/03 06:55:58;;;;;;;13.13;3.03;;;;;;;;;;5040129;28;20539;-70
2024/01/03 06:58:27;;;;;;;7.35;2.75;;;;;;;;;;5029830;28;20058;-70
2024/01/03 07:00:53;;;;;;;16.50;2.70;;;;;;;;;;5042736;28;20061;-70
2024/01/03 07:03:19;;;;;;;13.75;2.65;;;;;;;;;;5042794;28;20102;-71
2024/01/03 07:05:46;;;;;;;13.25;2.83;;;;;;;;;;5037547;28;20060;-69
2024/01/03 07:08:13;;;;;;;16.88;2.72;;;;;;;;;;5035819;28;20042;-70
2024/01/03 07:10:39;;;;;;;13.52;2.42;;;;;;;;;;5036397;28;20104;-70
2024/01/03 07:13:06;;;;;;;10.82;2.50;;;;;;;;;;5029944;28;20065;-70
2024/01/03 07:15:32;;;;;;;10.98;2.28;;;;;;;;;;5033891;28;20124;-69
2024/01/03 07:17:59;;;;;;;13.07;2.58;;;;;;;;;;5028832;28;20054;-70
2024/01/03 07:20:26;;;;;;;10.32;2.22;;;;;;;;;;5042736;28;20053;-70
2024/01/03 07:22:53;;;;;;;12.20;2.38;;;;;;;;;;5042102;28;20057;-70
2024/01/03 07:25:19;;;;;;;10.30;2.03;;;;;;;;;;5042915;28;20132;-70
2024/01/03 07:27:47;;;;;;;12.88;2.40;;;;;;;;;;5042623;28;20454;-70
2024/01/03 07:30:13;;;;;;;9.55;1.80;;;;;;;;;;5043185;28;20237;-70
2024/01/03 07:32:40;;;;;;;14.10;2.70;;;;;;;;;;5040015;28;20061;-71
2024/01/03 07:35:06;;;;;;;7.03;1.90;;;;;;;;;;5041316;28;20565;-71
2024/01/03 07:37:33;;;;;;;12.40;2.10;;;;;;;;;;5039477;28;20057;-70
2024/01/03 07:40:00;;;;;;;8.18;1.63;;;;;;;;;;5022882;28;20057;-70
2024/01/03 07:42:26;;;;;;;12.20;1.88;;;;;;;;;;5037662;28;20053;-70
2024/01/03 07:44:53;;;;;;;9.95;2.03;;;;;;;;;;5041764;28;20060;-70
2024/01/03 07:47:19;;;;;;;9.27;2.28;;;;;;;;;;5033608;28;20054;-70
2024/01/03 07:49:46;;;;;;;9.38;2.65;;;;;;;;;;5035305;28;20499;-70
2024/01/03 07:52:13;;;;;;;11.05;2.13;;;;;;;;;;5028121;28;20612;-71
2024/01/03 07:54:42;;;;;;;6.55;1.65;;;;;;;;;;5034133;28;20096;-71
2024/01/03 07:57:08;;;;;;;5.93;1.52;;;;;;;;;;5034883;28;20145;-72
2024/01/03 07:59:35;;;;;;;12.07;1.85;;;;;;;;;;5030522;28;20478;-71
2024/01/03 08:02:01;;;;;;;12.98;1.80;;;;;;;;;;5041975;28;20088;-71
2024/01/03 08:04:28;;;;;;;14.98;1.90;;;;;;;;;;5039518;28;20140;-70
2024/01/03 08:06:54;;;;;;;12.48;1.98;;;;;;;;;;5041311;28;20096;-70
2024/01/03 08:09:21;;;;;;;7.13;1.95;;;;;;;;;;5041850;28;20066;-72
2024/01/03 08:11:47;;;;;;;11.88;2.00;;;;;;;;;;5041053;28;20533;-70
2024/01/03 08:14:14;;;;;;;11.23;1.80;;;;;;;;;;5027183;28;20053;-70
2024/01/03 08:16:41;;;;;;;16.70;2.95;;;;;;;;;;5026699;28;20617;-71
2024/01/03 08:19:07;;;;;;;13.68;1.85;;;;;;;;;;5025704;28;20108;-71
2024/01/03 08:21:34;;;;;;;7.07;2.15;;;;;;;;;;5040260;28;20251;-70
2024/01/03 08:24:00;;;;;;;11.60;2.00;;;;;;;;;;5041041;28;20107;-71
2024/01/03 08:26:27;;;;;;;12.90;2.35;;;;;;;;;;5040552;28;20046;-72
2024/01/03 08:28:53;;;;;;;9.80;3.03;;;;;;;;;;5036818;28;20054;-72
2024/01/03 08:31:20;;;;;;;15.43;2.10;;;;;;;;;;5040746;28;20510;-71
2024/01/03 08:33:46;;;;;;;15.18;1.95;;;;;;;;;;5041642;28;20103;-72
2024/01/03 08:36:14;;;;;;;16.17;2.35;;;;;;;;;;5040138;28;20072;-72
2024/01/03 08:38:40;;;;;;;25.70;3.20;;;;;;;;;;5040539;28;20049;-72
2024/01/03 08:41:16;;;;;;;13.55;2.85;;;;;;;;;;5035061;28;20105;-71
2024/01/03 08:43:43;;;;;;;11.50;2.08;;;;;;;;;;5024542;28;20057;-71
2024/01/03 08:46:10;;;;;;;16.83;2.65;;;;;;;;;;5041857;28;20236;-72
2024/01/03 08:48:37;;;;;;;15.25;2.47;;;;;;;;;;5023627;28;20054;-72
2024/01/03 08:51:03;;;;;;;20.75;4.00;;;;;;;;;;5035973;28;20064;-72
2024/01/03 08:53:32;;;;;;;14.25;3.20;;;;;;;;;;5039741;28;20143;-71
2024/01/03 08:56:01;;;;;;;14.65;2.65;;;;;;;;;;5041819;28;20076;-73
2024/01/03 08:58:27;;;;;;;22.80;3.60;;;;;;;;;;5025984;28;20062;-71
2024/01/03 09:00:53;;;;;;;15.43;2.60;;;;;;;;;;5037536;28;20064;-72
2024/01/03 09:03:20;;;;;;;17.33;2.55;;;;;;;;;;5041394;28;20057;-73
2024/01/03 09:05:46;;;;;;;20.35;2.53;;;;;;;;;;5041423;28;20529;-71
2024/01/03 09:08:13;;;;;;;13.48;2.40;;;;;;;;;;5040944;28;20107;-71
2024/01/03 09:10:40;;;;;;;26.45;3.28;;;;;;;;;;5032227;28;20577;-72
2024/01/03 09:13:08;;;;;;;25.70;3.53;;;;;;;;;;5033014;28;20054;-71
2024/01/03 09:15:35;;;;;;;14.85;2.97;;;;;;;;;;5037972;28;20500;-71
2024/01/03 09:18:01;;;;;;;27.85;4.43;;;;;;;;;;5037046;28;20534;-71
2024/01/03 09:20:28;;;;;;;14.32;3.65;;;;;;;;;;5033663;28;20062;-70
2024/01/03 09:22:54;;;;;;;16.98;2.80;;;;;;;;;;5040862;28;20053;-70
2024/01/03 09:25:21;;;;;;;17.95;3.45;;;;;;;;;;5040720;28;20073;-71
2024/01/03 09:27:47;;;;;;;20.75;4.20;;;;;;;;;;5040103;28;20073;-71
2024/01/03 09:30:13;;;;;;;22.65;3.58;;;;;;;;;;5039003;28;20057;-71
2024/01/03 09:32:41;;;;;;;16.30;4.82;;;;;;;;;;5040079;28;20137;-71
2024/01/03 09:35:09;;;;;;;21.92;3.85;;;;;;;;;;5040619;28;20111;-71
2024/01/03 09:37:36;;;;;;;18.75;3.17;;;;;;;;;;5040570;28;20430;-72
2024/01/03 09:40:03;;;;;;;27.23;3.75;;;;;;;;;;5039640;28;20061;-72
2024/01/03 09:42:32;;;;;;;17.35;2.88;;;;;;;;;;5024008;28;20145;-71
2024/01/03 09:44:59;;;;;;;19.48;3.00;;;;;;;;;;5038544;28;20653;-71
2024/01/03 09:47:26;;;;;;;21.45;3.90;;;;;;;;;;5039706;28;20576;-72
2024/01/03 09:49:53;;;;;;;22.60;3.70;;;;;;;;;;5037746;28;20955;-72
2024/01/03 09:52:19;;;;;;;18.73;3.03;;;;;;;;;;5044064;28;20131;-71
2024/01/03 09:54:46;;;;;;;25.83;5.03;;;;;;;;;;5033073;28;20148;-71
2024/01/03 09:57:14;;;;;;;18.83;3.13;;;;;;;;;;5022487;28;20088;-71
2024/01/03 09:59:40;;;;;;;17.77;4.13;;;;;;;;;;5024292;28;20050;-71
2024/01/03 10:02:09;;;;;;;18.60;2.58;;;;;;;;;;5042932;28;20084;-71
2024/01/03 10:04:35;;;;;;;16.98;3.40;;;;;;;;;;5043588;28;20060;-70
2024/01/03 10:07:02;;;;;;;21.20;3.55;;;;;;;;;;5038813;28;20053;-70
2024/01/03 10:09:41;;;;;;;13.77;2.35;;;;;;;;;;5030862;28;20049;-71
2024/01/03 10:12:14;;;;;;;10.77;1.90;;;;;;;;;;5044094;28;20482;-71
2024/01/03 10:14:40;;;;;;;10.55;2.92;;;;;;;;;;5024840;28;20049;-71
2024/01/03 10:17:10;;;;;;;13.20;2.17;;;;;;;;;;5022398;28;20153;-71
2024/01/03 10:19:37;;;;;;;24.38;3.08;;;;;;;;;;5035613;28;20523;-70
2024/01/03 10:22:04;;;;;;;11.35;2.40;;;;;;;;;;5044961;28;20057;-71
2024/01/03 10:24:31;;;;;;;18.95;2.60;;;;;;;;;;5040972;28;20100;-71
2024/01/03 10:27:08;;;;;;;9.88;2.65;;;;;;;;;;5028888;28;20054;-71
2024/01/03 10:29:35;;;;;;;16.92;3.85;;;;;;;;;;5032724;28;20060;-70
2024/01/03 10:32:05;;;;;;;21.98;4.25;;;;;;;;;;5039517;28;20056;-70
2024/01/03 10:34:31;;;;;;;13.13;5.50;;;;;;;;;;5024746;28;20054;-70
2024/01/03 10:36:58;;;;;;;19.27;4.60;;;;;;;;;;5036610;28;20068;-70
2024/01/03 10:39:25;;;;;;;27.63;5.70;;;;;;;;;;5031362;28;20057;-70
2024/01/03 10:41:52;;;;;;;17.35;4.03;;;;;;;;;;5028099;28;20049;-70
2024/01/03 10:44:19;;;;;;;14.98;3.25;;;;;;;;;;5044378;28;20104;-70
2024/01/03 10:46:51;;;;;;;21.20;3.03;;;;;;;;;;5042746;28;20115;-70
2024/01/03 10:49:19;;;;;;;20.63;4.05;;;;;;;;;;5031364;28;20557;-69
2024/01/03 10:51:48;;;;;;;20.90;4.50;;;;;;;;;;5032605;28;20058;-70
2024/01/03 10:54:16;;;;;;;14.45;3.00;;;;;;;;;;5033626;28;20057;-71
2024/01/03 10:56:52;;;;;;;16.10;2.97;;;;;;;;;;5041304;28;20216;-71
2024/01/03 10:59:23;;;;;;;24.10;3.75;;;;;;;;;;5032645;28;20049;-71
2024/01/03 11:02:19;;;;;;;19.33;3.95;;;;;;;;;;5030758;28;20100;-71
2024/01/03 11:04:48;;;;;;;27.10;4.13;;;;;;;;;;5027808;28;20053;-71
2024/01/03 11:07:25;;;;;;;17.40;3.30;;;;;;;;;;5037789;28;20045;-71
2024/01/03 11:09:51;;;;;;;18.30;3.42;;;;;;;;;;5026731;28;20159;-71
2024/01/03 11:12:18;;;;;;;17.77;3.45;;;;;;;;;;5042980;28;20508;-70
2024/01/03 11:14:45;;;;;;;22.10;3.13;;;;;;;;;;5041496;28;20131;-70
2024/01/03 11:17:11;;;;;;;21.13;4.22;;;;;;;;;;5034283;28;20092;-71
2024/01/03 11:19:38;;;;;;;30.75;4.97;;;;;;;;;;5022133;28;20132;-70
2024/01/03 11:22:05;;;;;;;22.30;4.80;;;;;;;;;;5023461;28;20563;-70
2024/01/03 11:24:32;;;;;;;17.17;4.15;;;;;;;;;;5023165;28;20065;-70
2024/01/03 11:27:03;;;;;;;21.70;5.00;;;;;;;;;;5027671;28;20059;-70
2024/01/03 11:29:36;;;;;;;18.08;4.07;;;;;;;;;;5042898;28;20061;-71
2024/01/03 11:32:08;;;;;;;21.27;3.72;;;;;;;;;;5043776;28;20054;-71
2024/01/03 11:34:42;;;;;;;26.73;4.65;;;;;;;;;;5024022;28;20110;-69
2024/01/03 11:37:11;;;;;;;25.15;3.20;;;;;;;;;;5038504;28;20105;-71
2024/01/03 11:39:43;;;;;;;14.77;3.00;;;;;;;;;;5042163;28;20059;-71
2024/01/03 11:42:10;;;;;;;19.23;4.05;;;;;;;;;;5040630;28;20046;-72
2024/01/03 11:44:36;;;;;;;25.73;4.20;;;;;;;;;;5045336;28;20054;-71
2024/01/03 11:47:03;;;;;;;25.27;4.32;;;;;;;;;;5034398;28;20172;-72
2024/01/03 11:49:30;;;;;;;24.77;3.38;;;;;;;;;;5038525;28;20050;-72
2024/01/03 11:51:59;;;;;;;21.70;4.00;;;;;;;;;;5034071;28;20128;-72
2024/01/03 11:54:26;;;;;;;15.43;3.42;;;;;;;;;;5022733;28;20061;-72
2024/01/03 11:56:56;;;;;;;26.88;4.40;;;;;;;;;;5023170;28;20050;-71
2024/01/03 11:59:23;;;;;;;25.00;3.00;;;;;;;;;;5031110;28;20546;-71
2024/01/03 12:01:58;;;;;;;27.08;4.85;;;;;;;;;;5042578;28;20498;-72
2024/01/03 12:04:25;;;;;;;25.38;5.32;;;;;;;;;;5042551;28;20503;-71
2024/01/03 12:06:58;;;;;;;20.02;3.75;;;;;;;;;;5042788;28;20053;-71
2024/01/03 12:09:29;;;;;;;23.10;3.65;;;;;;;;;;5029638;28;20057;-71
2024/01/03 12:11:55;;;;;;;26.42;4.47;;;;;;;;;;5029536;28;20095;-70
2024/01/03 12:14:22;;;;;;;21.00;3.35;;;;;;;;;;5032208;28;20101;-70
2024/01/03 12:16:50;;;;;;;19.02;3.92;;;;;;;;;;5040821;28;20501;-71
2024/01/03 12:19:23;;;;;;;18.33;3.83;;;;;;;;;;5042475;28;20045;-71
2024/01/03 12:21:54;;;;;;;19.05;3.40;;;;;;;;;;5025819;28;20084;-71
2024/01/03 12:24:20;;;;;;;29.85;4.18;;;;;;;;;;5033005;28;20053;-71
2024/01/03 12:26:50;;;;;;;19.02;3.33;;;;;;;;;;5036579;28;20053;-72
2024/01/03 12:29:16;;;;;;;27.10;4.43;;;;;;;;;;5021831;28;20050;-71
2024/01/03 12:31:43;;;;;;;26.55;4.63;;;;;;;;;;5041115;28;20403;-71
2024/01/03 12:34:10;;;;;;;24.42;4.65;;;;;;;;;;5042672;28;20050;-71
2024/01/03 12:36:36;;;;;;;26.25;4.35;;;;;;;;;;5041998;28;20115;-71
2024/01/03 12:39:03;;;;;;;38.78;5.20;;;;;;;;;;5037959;28;20062;-71
2024/01/03 12:41:30;;;;;;;33.35;5.32;;;;;;;;;;5042747;28;20506;-72
2024/01/03 12:43:56;;;;;;;31.33;4.63;;;;;;;;;;5041648;28;20049;-71
2024/01/03 12:46:23;;;;;;;32.88;5.05;;;;;;;;;;5033203;28;20057;-72
2024/01/03 12:48:50;;;;;;;34.50;6.63;;;;;;;;;;5024627;28;20065;-71
2024/01/03 12:51:17;;;;;;;38.35;7.70;;;;;;;;;;5042142;28;20056;-72
2024/01/03 12:53:46;;;;;;;26.73;3.90;;;;;;;;;;5040830;28;20144;-71
2024/01/03 12:56:14;;;;;;;23.23;4.78;;;;;;;;;;5030763;28;20744;-72
2024/01/03 12:58:40;;;;;;;30.02;6.32;;;;;;;;;;5022085;28;20502;-72
2024/01/03 13:01:06;;;;;;;23.60;4.25;;;;;;;;;;5033415;28;20049;-71
2024/01/03 13:03:33;;;;;;;26.85;4.55;;;;;;;;;;5041518;28;20053;-71
2024/01/03 13:05:59;;;;;;;31.98;4.97;;;;;;;;;;5041667;28;20077;-71
2024/01/03 13:08:26;;;;;;;26.40;4.82;;;;;;;;;;5034103;28;20054;-70
2024/01/03 13:10:54;;;;;;;31.23;6.60;;;;;;;;;;5035961;28;20060;-72
2024/01/03 13:13:21;;;;;;;35.95;4.22;;;;;;;;;;5040324;28;20054;-71
2024/01/03 13:15:50;;;;;;;19.23;4.00;;;;;;;;;;5039499;28;20053;-71
2024/01/03 13:18:17;;;;;;;19.70;3.63;;;;;;;;;;5030545;28;20058;-71
2024/01/03 13:20:43;;;;;;;27.83;4.60;;;;;;;;;;5037106;28;20057;-72
2024/01/03 13:23:10;;;;;;;24.42;5.80;;;;;;;;;;5045864;28;20112;-72
2024/01/03 13:25:36;;;;;;;21.23;5.05;;;;;;;;;;5037763;28;20053;-71
2024/01/03 13:28:03;;;;;;;18.02;3.97;;;;;;;;;;5044343;28;20092;-72
2024/01/03 13:30:29;;;;;;;25.77;4.55;;;;;;;;;;5030649;28;20058;-71
2024/01/03 13:32:56;;;;;;;18.77;3.53;;;;;;;;;;5036099;28;20108;-69
2024/01/03 13:35:23;;;;;;;30.17;5.05;;;;;;;;;;5044333;28;20099;-71
2024/01/03 13:37:50;;;;;;;19.60;3.42;;;;;;;;;;5030703;28;20538;-71
2024/01/03 13:40:17;;;;;;;18.05;3.38;;;;;;;;;;5026701;28;20060;-71
2024/01/03 13:42:44;;;;;;;21.73;3.05;;;;;;;;;;5026040;28;20058;-70
2024/01/03 13:45:11;;;;;;;15.35;3.63;;;;;;;;;;5039145;28;20053;-70
2024/01/03 13:47:38;;;;;;;19.77;3.67;;;;;;;;;;5044827;28;20061;-70
2024/01/03 13:50:05;;;;;;;22.95;3.55;;;;;;;;;;5044015;28;20060;-70
2024/01/03 13:52:31;;;;;;;26.00;3.85;;;;;;;;;;5043882;28;20527;-70
2024/01/03 13:54:58;;;;;;;16.00;2.63;;;;;;;;;;5045197;28;20053;-71
2024/01/03 13:57:24;;;;;;;15.95;3.22;;;;;;;;;;5043959;28;20853;-70
2024/01/03 13:59:50;;;;;;;22.17;3.90;;;;;;;;;;5040321;28;20156;-70
2024/01/03 14:02:17;;;;;;;19.10;3.83;;;;;;;;;;5039181;28;20531;-71
2024/01/03 14:04:44;;;;;;;22.85;3.47;;;;;;;;;;5025027;28;20054;-70
2024/01/03 14:07:12;;;;;;;22.55;3.33;;;;;;;;;;5024351;28;20512;-71
2024/01/03 14:09:40;;;;;;;19.23;3.22;;;;;;;;;;5032709;28;20054;-70
2024/01/03 14:12:06;;;;;;;18.02;2.88;;;;;;;;;;5043761;28;20061;-70
2024/01/03 14:14:36;;;;;;;12.88;2.85;;;;;;;;;;5044205;28;20053;-70
2024/01/03 14:17:04;;;;;;;12.68;2.33;;;;;;;;;;5044284;28;20496;-70
2024/01/03 14:19:30;;;;;;;20.10;4.60;;;;;;;;;;5027337;28;20513;-70
2024/01/03 14:21:59;;;;;;;12.65;2.83;;;;;;;;;;5024629;28;20049;-70
2024/01/03 14:24:26;;;;;;;19.85;3.08;;;;;;;;;;5033804;28;20049;-70
2024/01/03 14:26:53;;;;;;;15.88;3.25;;;;;;;;;;5024931;28;20053;-71
2024/01/03 14:29:20;;;;;;;16.70;3.03;;;;;;;;;;5024384;28;20058;-70
2024/01/03 14:31:47;;;;;;;13.82;2.88;;;;;;;;;;5035623;28;20139;-70